Maersk Weymouth — VRFS9 — position and weather

sailwx.info

Track history (hours):
 
Tides and Currents Weather Stations Pressure Air Temp Water Temp Dewpoint Dewpoint Depression Visibility Wind Speed Wind Dir Waves Ship Positions

Maersk Weymouth

Last reported at 2015-Apr-22 18:10 UTC. Time now 2015-May-07 02:37 UTC.
Position N 38°33' W 030°19'.
Warning: this ship's position is 14 days out of date.

Length 172 m; draft 7.4 m.

Type: Cargo ship. MMSI: 477622100.

Date/timePositionNaut miles runAvg speedWind from/ knotsBaromVisibWave heightAir tempDewpointWater temp
2015-Apr-22 18:10N 38°33' W 030°19'1016.8
2015-Apr-22 17:34N 38°38' W 030°07'1716.8
2015-Apr-22 16:33N 38°44' W 029°47'1716.5
2015-Apr-22 15:33N 38°52' W 029°29'1717.1
2015-Apr-22 14:34N 39°01' W 029°10'1717.3
2015-Apr-22 13:33N 39°10' W 028°51'1717.5
2015-Apr-22 12:33N 39°19' W 028°32'1817.9
2015-Apr-22 11:34N 39°28' W 028°12'1817.8
2015-Apr-22 10:33N 39°38' W 027°52'1817.3
2015-Apr-22 09:29N 39°47' W 027°32'  
2015-Apr-19 18:20N 49°57' W 003°06'1617.8
2015-Apr-19 17:26N 50°02' W 002°42'1719.5
2015-Apr-19 16:32N 50°06' W 002°16'6822.6
2015-Apr-19 13:31N 50°24' W 000°33'2221.0
2015-Apr-19 12:27N 50°30' E 000°00'1819.6
2015-Apr-19 11:34N 50°35' E 000°27'1818.1
2015-Apr-19 10:34N 50°45' E 000°51'1918.5
2015-Apr-19 09:33N 50°57' E 001°13'2221.7
2015-Apr-19 08:34N 51°10' E 001°40'2222.2
2015-Apr-19 07:34N 51°29' E 002°00'6118.9
2015-Apr-19 04:21N 52°03' E 003°21'1418.1
2015-Apr-19 03:33N 52°04' E 003°45'1312.7
2015-Apr-19 02:34N 51°59' E 004°04'1111.2
2015-Apr-19 01:34N 51°54' E 004°19'4 4.1
2015-Apr-19 00:34N 51°54' E 004°26'0 0.0
2015-Apr-18 23:31N 51°54' E 004°26'0 0.0
2015-Apr-18 22:31N 51°54' E 004°26'0 0.0
2015-Apr-18 21:31N 51°54' E 004°26'0 0.0
2015-Apr-18 20:31N 51°54' E 004°26'0 0.0
2015-Apr-18 19:31N 51°54' E 004°26'0 0.0
2015-Apr-18 18:31N 51°54' E 004°26'0 0.0
2015-Apr-18 17:31N 51°54' E 004°26'0 0.0
2015-Apr-18 16:31N 51°54' E 004°26'0 0.0
2015-Apr-18 15:31N 51°54' E 004°26'0 0.0
2015-Apr-18 14:31N 51°54' E 004°26'0 0.0
2015-Apr-18 13:28N 51°54' E 004°26'0 0.0
2015-Apr-18 12:31N 51°54' E 004°26'0 0.0
2015-Apr-18 11:31N 51°54' E 004°26'0 0.0
2015-Apr-18 10:31N 51°54' E 004°26'0 0.0
2015-Apr-18 09:31N 51°54' E 004°26'0 0.0
2015-Apr-18 08:31N 51°54' E 004°26'0 0.0
2015-Apr-18 07:31N 51°54' E 004°26'0 0.0
2015-Apr-18 06:31N 51°54' E 004°26'0 0.0
2015-Apr-18 05:28N 51°54' E 004°26'0 0.0
2015-Apr-18 04:31N 51°54' E 004°26'0 0.0
2015-Apr-18 03:31N 51°54' E 004°26'0 0.0
2015-Apr-18 02:31N 51°54' E 004°26'0 0.0
2015-Apr-18 01:31N 51°54' E 004°26'3 3.4
2015-Apr-18 00:33N 51°54' E 004°21'7 7.4
2015-Apr-17 23:33N 51°57' E 004°10'8 8.1
2015-Apr-17 22:33N 51°60' E 003°58'7 6.9
2015-Apr-17 21:33N 51°60' E 003°46'2 1.9
2015-Apr-17 20:33N 51°59' E 003°44'4 4.2
2015-Apr-17 19:33N 51°57' E 003°38'4 4.1
2015-Apr-17 18:33N 51°54' E 003°34'1 1.2
2015-Apr-17 17:33N 51°53' E 003°32'6 5.7
2015-Apr-17 16:33N 51°58' E 003°38'5 4.7
2015-Apr-17 15:31N 51°57' E 003°30'5 5.0
2015-Apr-17 14:28N 51°55' E 003°22'36 5.9
2015-Apr-17 08:20N 51°40' E 002°29'5 6.4
2015-Apr-17 07:33N 51°36' E 002°24'6 6.3
2015-Apr-17 06:33N 51°31' E 002°18'6 6.3
2015-Apr-17 05:32N 51°26' E 002°11'6 5.9
2015-Apr-17 04:30N 51°21' E 002°07'6 6.4
2015-Apr-17 03:33N 51°15' E 002°06'6 6.0
2015-Apr-17 02:33N 51°12' E 001°58'5 5.5
2015-Apr-17 01:34N 51°09' E 001°50'6 6.5
2015-Apr-17 00:33N 51°05' E 001°43'7 7.5
2015-Apr-16 23:34N 50°59' E 001°35'8 8.2
2015-Apr-16 22:33N 50°52' E 001°28'8 7.9
2015-Apr-16 21:31N 50°45' E 001°22'6 6.7
2015-Apr-16 20:33N 50°40' E 001°17'7 6.5
2015-Apr-16 19:33N 50°35' E 001°09'7 6.7
2015-Apr-16 18:30N 50°30' E 001°01'26 7.8
2015-Apr-16 15:10N 50°22' E 000°22'35 6.2
2015-Apr-16 09:31N 50°14' W 000°31'10 9.6
2015-Apr-16 08:27N 50°11' W 000°46'1212.9
2015-Apr-16 07:33N 50°08' W 001°04'1312.9
2015-Apr-16 06:31N 50°04' W 001°24'1212.9
2015-Apr-16 05:33N 50°01' W 001°42'1414.2
2015-Apr-16 04:33N 49°57' W 002°04'1717.5
2015-Apr-16 03:33N 49°53' W 002°30'1716.5
2015-Apr-16 02:33N 49°49' W 002°55'3315.7
2015-Apr-16 00:26N 49°37' W 003°43'  
2015-Apr-12 22:09N 39°48' W 027°34'1015.8
2015-Apr-12 21:33N 39°43' W 027°44'1616.1
2015-Apr-12 20:33N 39°35' W 028°02'1716.6
2015-Apr-12 19:33N 39°26' W 028°21'1716.7
2015-Apr-12 18:33N 39°17' W 028°39'  
Track history (hours):
 
Tides and Currents Weather Stations Pressure Air Temp Water Temp Dewpoint Dewpoint Depression Visibility Wind Speed Wind Dir Waves Ship Positions

Maersk Weymouth

Last reported at 2015-Apr-22 18:10 UTC. Time now 2015-May-07 02:37 UTC.
Position N 38°33' W 030°19'.
Warning: this ship's position is 14 days out of date.

Length 172 m; draft 7.4 m.

Type: Cargo ship. MMSI: 477622100.

Date/timePositionNaut miles runAvg speedWind from/ knotsBaromVisibWave heightAir tempDewpointWater temp
2015-Apr-22 18:10N 38°33' W 030°19'1016.8
2015-Apr-22 17:34N 38°38' W 030°07'1716.8
2015-Apr-22 16:33N 38°44' W 029°47'1716.5
2015-Apr-22 15:33N 38°52' W 029°29'1717.1
2015-Apr-22 14:34N 39°01' W 029°10'1717.3
2015-Apr-22 13:33N 39°10' W 028°51'1717.5
2015-Apr-22 12:33N 39°19' W 028°32'1817.9
2015-Apr-22 11:34N 39°28' W 028°12'1817.8
2015-Apr-22 10:33N 39°38' W 027°52'1817.3
2015-Apr-22 09:29N 39°47' W 027°32'  
2015-Apr-19 18:20N 49°57' W 003°06'1617.8
2015-Apr-19 17:26N 50°02' W 002°42'1719.5
2015-Apr-19 16:32N 50°06' W 002°16'6822.6
2015-Apr-19 13:31N 50°24' W 000°33'2221.0
2015-Apr-19 12:27N 50°30' E 000°00'1819.6
2015-Apr-19 11:34N 50°35' E 000°27'1818.1
2015-Apr-19 10:34N 50°45' E 000°51'1918.5
2015-Apr-19 09:33N 50°57' E 001°13'2221.7
2015-Apr-19 08:34N 51°10' E 001°40'2222.2
2015-Apr-19 07:34N 51°29' E 002°00'6118.9
2015-Apr-19 04:21N 52°03' E 003°21'1418.1
2015-Apr-19 03:33N 52°04' E 003°45'1312.7
2015-Apr-19 02:34N 51°59' E 004°04'1111.2
2015-Apr-19 01:34N 51°54' E 004°19'4 4.1
2015-Apr-19 00:34N 51°54' E 004°26'0 0.0
2015-Apr-18 23:31N 51°54' E 004°26'0 0.0
2015-Apr-18 22:31N 51°54' E 004°26'0 0.0
2015-Apr-18 21:31N 51°54' E 004°26'0 0.0
2015-Apr-18 20:31N 51°54' E 004°26'0 0.0
2015-Apr-18 19:31N 51°54' E 004°26'0 0.0
2015-Apr-18 18:31N 51°54' E 004°26'0 0.0
2015-Apr-18 17:31N 51°54' E 004°26'0 0.0
2015-Apr-18 16:31N 51°54' E 004°26'0 0.0
2015-Apr-18 15:31N 51°54' E 004°26'0 0.0
2015-Apr-18 14:31N 51°54' E 004°26'0 0.0
2015-Apr-18 13:28N 51°54' E 004°26'0 0.0
2015-Apr-18 12:31N 51°54' E 004°26'0 0.0
2015-Apr-18 11:31N 51°54' E 004°26'0 0.0
2015-Apr-18 10:31N 51°54' E 004°26'0 0.0
2015-Apr-18 09:31N 51°54' E 004°26'0 0.0
2015-Apr-18 08:31N 51°54' E 004°26'0 0.0
2015-Apr-18 07:31N 51°54' E 004°26'0 0.0
2015-Apr-18 06:31N 51°54' E 004°26'0 0.0
2015-Apr-18 05:28N 51°54' E 004°26'0 0.0
2015-Apr-18 04:31N 51°54' E 004°26'0 0.0
2015-Apr-18 03:31N 51°54' E 004°26'0 0.0
2015-Apr-18 02:31N 51°54' E 004°26'0 0.0
2015-Apr-18 01:31N 51°54' E 004°26'3 3.4
2015-Apr-18 00:33N 51°54' E 004°21'7 7.4
2015-Apr-17 23:33N 51°57' E 004°10'8 8.1
2015-Apr-17 22:33N 51°60' E 003°58'7 6.9
2015-Apr-17 21:33N 51°60' E 003°46'2 1.9
2015-Apr-17 20:33N 51°59' E 003°44'4 4.2
2015-Apr-17 19:33N 51°57' E 003°38'4 4.1
2015-Apr-17 18:33N 51°54' E 003°34'1 1.2
2015-Apr-17 17:33N 51°53' E 003°32'6 5.7
2015-Apr-17 16:33N 51°58' E 003°38'5 4.7
2015-Apr-17 15:31N 51°57' E 003°30'5 5.0
2015-Apr-17 14:28N 51°55' E 003°22'36 5.9
2015-Apr-17 08:20N 51°40' E 002°29'5 6.4
2015-Apr-17 07:33N 51°36' E 002°24'6 6.3
2015-Apr-17 06:33N 51°31' E 002°18'6 6.3
2015-Apr-17 05:32N 51°26' E 002°11'6 5.9
2015-Apr-17 04:30N 51°21' E 002°07'6 6.4
2015-Apr-17 03:33N 51°15' E 002°06'6 6.0
2015-Apr-17 02:33N 51°12' E 001°58'5 5.5
2015-Apr-17 01:34N 51°09' E 001°50'6 6.5
2015-Apr-17 00:33N 51°05' E 001°43'7 7.5
2015-Apr-16 23:34N 50°59' E 001°35'8 8.2
2015-Apr-16 22:33N 50°52' E 001°28'8 7.9
2015-Apr-16 21:31N 50°45' E 001°22'6 6.7
2015-Apr-16 20:33N 50°40' E 001°17'7 6.5
2015-Apr-16 19:33N 50°35' E 001°09'7 6.7
2015-Apr-16 18:30N 50°30' E 001°01'26 7.8
2015-Apr-16 15:10N 50°22' E 000°22'35 6.2
2015-Apr-16 09:31N 50°14' W 000°31'10 9.6
2015-Apr-16 08:27N 50°11' W 000°46'1212.9
2015-Apr-16 07:33N 50°08' W 001°04'1312.9
2015-Apr-16 06:31N 50°04' W 001°24'1212.9
2015-Apr-16 05:33N 50°01' W 001°42'1414.2
2015-Apr-16 04:33N 49°57' W 002°04'1717.5
2015-Apr-16 03:33N 49°53' W 002°30'1716.5
2015-Apr-16 02:33N 49°49' W 002°55'3315.7
2015-Apr-16 00:26N 49°37' W 003°43'  
2015-Apr-12 22:09N 39°48' W 027°34'1015.8
2015-Apr-12 21:33N 39°43' W 027°44'1616.1
2015-Apr-12 20:33N 39°35' W 028°02'1716.6
2015-Apr-12 19:33N 39°26' W 028°21'1716.7
2015-Apr-12 18:33N 39°17' W 028°39'  

Dump ship's entire track history